Time;durP1;ratioP1;P1;durP2;ratioP2;P2;SDS_P1;SDS_P2;PMS_P1;PMS_P2;Temp;Humidity;BMP_temperature;BMP_pressure;BME280_temperature;BME280_humidity;BME280_pressure;Samples;Min_cycle;Max_cycle;Signal;HPM_P1;HPM_P2
2022/04/02 05:00:48;;;;;;;8.33;7.60;;;4.20;97.20;;;;;;1714176;28;20189;-72
2022/04/02 05:01:39;;;;;;;8.93;7.43;;;4.20;97.20;;;;;;1714018;28;20204;-71
2022/04/02 05:02:31;;;;;;;11.33;7.67;;;4.20;97.20;;;;;;1714190;28;20200;-71
2022/04/02 05:03:22;;;;;;;7.70;7.03;;;4.20;97.20;;;;;;1713686;28;20236;-72
2022/04/02 05:04:14;;;;;;;8.53;7.60;;;4.20;97.20;;;;;;1714044;28;20217;-72
2022/04/02 05:05:07;;;;;;;7.97;7.28;;;4.20;97.20;;;;;;1714101;28;20448;-72
2022/04/02 05:05:59;;;;;;;10.48;8.10;;;4.20;97.20;;;;;;1714004;28;20612;-72
2022/04/02 05:06:50;;;;;;;8.70;7.90;;;4.20;97.20;;;;;;1714101;28;20657;-72
2022/04/02 05:07:42;;;;;;;9.83;7.77;;;4.20;97.20;;;;;;1714016;28;20561;-72
2022/04/02 05:08:33;;;;;;;8.45;7.65;;;4.20;97.20;;;;;;1713740;28;20209;-72
2022/04/02 05:09:25;;;;;;;8.67;6.83;;;4.20;97.20;;;;;;1713980;28;20213;-72
2022/04/02 05:10:16;;;;;;;8.15;7.35;;;4.20;97.20;;;;;;1713952;28;20448;-72
2022/04/02 05:11:10;;;;;;;9.00;8.17;;;4.20;97.20;;;;;;1714077;28;20208;-72
2022/04/02 05:12:01;;;;;;;8.23;7.53;;;4.20;97.20;;;;;;1713968;28;20495;-71
2022/04/02 05:12:53;;;;;;;8.60;7.90;;;4.20;97.20;;;;;;1714147;28;20202;-71
2022/04/02 05:13:45;;;;;;;7.55;6.85;;;4.20;97.20;;;;;;1713899;28;20504;-72
2022/04/02 05:14:36;;;;;;;8.15;7.32;;;4.30;97.20;;;;;;1714189;28;20194;-72
2022/04/02 05:15:27;;;;;;;8.25;7.35;;;4.30;97.20;;;;;;1714025;28;20240;-71
2022/04/02 05:16:20;;;;;;;8.00;7.20;;;4.30;97.20;;;;;;1714094;28;20217;-72
2022/04/02 05:17:11;;;;;;;7.90;7.20;;;4.30;97.20;;;;;;1714062;28;20453;-72
2022/04/02 05:18:03;;;;;;;7.73;7.03;;;4.30;97.20;;;;;;1713802;28;20201;-72
2022/04/02 05:18:55;;;;;;;8.00;7.30;;;4.30;97.20;;;;;;1714018;28;20240;-72
2022/04/02 05:19:47;;;;;;;7.88;7.28;;;4.30;97.20;;;;;;1713955;28;20253;-71
2022/04/02 05:20:38;;;;;;;8.38;7.57;;;4.30;97.20;;;;;;1713993;28;20229;-72
2022/04/02 05:21:30;;;;;;;7.70;7.03;;;4.30;97.20;;;;;;1714076;28;20205;-72
2022/04/02 05:22:21;;;;;;;8.07;7.47;;;4.30;97.20;;;;;;1713970;28;20210;-71
2022/04/02 05:23:12;;;;;;;8.40;7.80;;;4.30;97.20;;;;;;1714091;28;20233;-71
2022/04/02 05:24:04;;;;;;;8.32;7.68;;;4.30;97.20;;;;;;1713770;28;20684;-72
2022/04/02 05:24:55;;;;;;;8.10;7.40;;;4.30;97.20;;;;;;1713938;28;20233;-71
2022/04/02 05:25:46;;;;;;;8.40;7.60;;;4.30;97.20;;;;;;1713927;28;20233;-72
2022/04/02 05:26:38;;;;;;;8.10;7.50;;;4.30;97.20;;;;;;1714090;28;20205;-72
2022/04/02 05:27:29;;;;;;;8.57;7.88;;;4.30;97.20;;;;;;1714053;28;20225;-71
2022/04/02 05:28:21;;;;;;;7.90;7.10;;;4.30;97.20;;;;;;1713791;28;20198;-71
2022/04/02 05:29:11;;;;;;;8.27;7.68;;;4.30;97.20;;;;;;1714073;28;20209;-71
2022/04/02 05:30:04;;;;;;;8.90;8.07;;;4.30;97.20;;;;;;1714051;28;20278;-71
2022/04/02 05:30:54;;;;;;;8.43;7.68;;;4.30;97.20;;;;;;1713948;28;20244;-71
2022/04/02 05:31:48;;;;;;;8.40;7.60;;;4.30;97.20;;;;;;1713945;28;20205;-71
2022/04/02 05:32:40;;;;;;;8.52;7.82;;;4.30;97.20;;;;;;1713977;28;20209;-72
2022/04/02 05:33:32;;;;;;;8.40;7.70;;;4.30;97.20;;;;;;1713595;28;20218;-72
2022/04/02 05:34:22;;;;;;;9.05;8.25;;;4.20;97.20;;;;;;1713953;28;20600;-72
2022/04/02 05:35:14;;;;;;;8.30;7.70;;;4.20;97.20;;;;;;1714016;28;20202;-71
2022/04/02 05:36:05;;;;;;;9.27;8.48;;;4.20;97.20;;;;;;1713882;28;20256;-72
2022/04/02 05:36:57;;;;;;;8.93;8.10;;;4.20;97.20;;;;;;1713911;28;20201;-72
2022/04/02 05:37:49;;;;;;;8.30;7.60;;;4.20;97.20;;;;;;1713985;28;20198;-71
2022/04/02 05:38:41;;;;;;;8.38;7.65;;;4.20;97.20;;;;;;1713616;28;20202;-72
2022/04/02 05:39:32;;;;;;;7.72;7.15;;;4.20;97.20;;;;;;1713889;28;20639;-72
2022/04/02 05:40:24;;;;;;;8.68;7.97;;;4.20;97.20;;;;;;1713913;28;20238;-71
2022/04/02 05:41:15;;;;;;;7.82;7.25;;;4.20;97.20;;;;;;1713918;28;20268;-72
2022/04/02 05:42:07;;;;;;;8.57;7.27;;;4.20;97.20;;;;;;1713915;28;20256;-72
2022/04/02 05:42:58;;;;;;;7.45;6.95;;;4.20;97.20;;;;;;1713855;28;20237;-71
2022/04/02 05:43:50;;;;;;;7.85;7.25;;;4.20;97.20;;;;;;1713634;28;20297;-72
2022/04/02 05:44:41;;;;;;;7.78;7.15;;;4.20;97.20;;;;;;1713648;28;20198;-72
2022/04/02 05:45:33;;;;;;;8.50;7.80;;;4.30;97.20;;;;;;1713975;28;20208;-72
2022/04/02 05:46:24;;;;;;;7.50;7.00;;;4.30;97.20;;;;;;1713891;28;20449;-72
2022/04/02 05:47:16;;;;;;;8.23;7.57;;;4.30;97.20;;;;;;1713851;28;20214;-72
2022/04/02 05:48:08;;;;;;;7.40;6.80;;;4.30;97.20;;;;;;1713545;28;20202;-72
2022/04/02 05:48:59;;;;;;;7.40;6.70;;;4.30;97.20;;;;;;1713782;28;20214;-72
2022/04/02 05:49:52;;;;;;;7.90;7.20;;;4.30;97.20;;;;;;1713775;28;20683;-72
2022/04/02 05:50:43;;;;;;;7.72;6.93;;;4.30;97.20;;;;;;1713835;28;20529;-72
2022/04/02 05:51:35;;;;;;;7.63;7.03;;;4.30;97.20;;;;;;1713884;28;20232;-72
2022/04/02 05:52:26;;;;;;;6.78;6.22;;;4.30;97.20;;;;;;1713865;28;20269;-72
2022/04/02 05:53:18;;;;;;;7.20;6.60;;;4.30;97.20;;;;;;1713896;28;20225;-73
2022/04/02 05:54:08;;;;;;;7.50;6.90;;;4.30;97.20;;;;;;1713592;28;20229;-72
2022/04/02 05:55:00;;;;;;;7.47;6.97;;;4.30;97.20;;;;;;1713855;28;20233;-72
2022/04/02 05:55:51;;;;;;;7.90;7.30;;;4.30;97.20;;;;;;1713804;28;20317;-72
2022/04/02 05:56:43;;;;;;;7.07;6.47;;;4.30;97.20;;;;;;1713850;28;20801;-72
2022/04/02 05:57:35;;;;;;;7.25;6.65;;;4.30;97.20;;;;;;1713955;28;20559;-73
2022/04/02 05:58:27;;;;;;;7.32;6.70;;;4.30;97.20;;;;;;1713581;28;20209;-71
2022/04/02 05:59:18;;;;;;;6.88;6.30;;;4.30;97.20;;;;;;1713789;28;20210;-72
2022/04/02 06:00:12;;;;;;;7.38;6.82;;;4.40;97.20;;;;;;1713939;28;20292;-72
2022/04/02 06:01:03;;;;;;;7.38;6.78;;;4.40;97.20;;;;;;1713911;28;20745;-72
2022/04/02 06:01:55;;;;;;;7.35;6.75;;;4.40;97.20;;;;;;1713870;28;20248;-72
2022/04/02 06:02:48;;;;;;;8.02;7.28;;;4.40;97.20;;;;;;1713853;28;20198;-73
2022/04/02 06:03:41;;;;;;;8.18;7.47;;;4.40;97.20;;;;;;1713468;28;20221;-73
2022/04/02 06:04:32;;;;;;;7.10;6.50;;;4.40;97.20;;;;;;1713919;28;20202;-72
2022/04/02 06:05:24;;;;;;;7.33;6.70;;;4.40;97.20;;;;;;1713926;28;20649;-72
2022/04/02 06:06:15;;;;;;;7.30;6.70;;;4.50;97.20;;;;;;1713799;28;20468;-71
2022/04/02 06:07:07;;;;;;;6.97;6.37;;;4.50;97.20;;;;;;1713726;28;20228;-72
2022/04/02 06:07:57;;;;;;;7.32;6.72;;;4.50;97.20;;;;;;1713512;28;20448;-72
2022/04/02 06:08:49;;;;;;;7.30;6.70;;;4.50;97.20;;;;;;1713591;28;20202;-72
2022/04/02 06:09:40;;;;;;;7.40;6.80;;;4.60;97.20;;;;;;1713677;28;20449;-72
2022/04/02 06:10:32;;;;;;;7.20;6.70;;;4.60;97.20;;;;;;1713844;28;20725;-72
2022/04/02 06:11:23;;;;;;;6.50;6.10;;;4.60;97.20;;;;;;1712895;28;20233;-72
2022/04/02 06:12:14;;;;;;;6.37;5.77;;;4.60;97.20;;;;;;1712133;28;20194;-73
2022/04/02 06:13:05;;;;;;;6.82;6.32;;;4.60;97.20;;;;;;1714953;28;20299;-72
2022/04/02 06:13:57;;;;;;;7.15;6.32;;;4.60;97.20;;;;;;1715135;28;20217;-72
2022/04/02 06:14:48;;;;;;;6.93;6.40;;;4.60;97.20;;;;;;1715155;28;20286;-72
2022/04/02 06:15:40;;;;;;;7.20;6.60;;;4.70;97.20;;;;;;1715187;28;20217;-72
2022/04/02 06:16:30;;;;;;;7.18;6.60;;;4.70;97.20;;;;;;1715141;28;20535;-72
2022/04/02 06:17:22;;;;;;;6.90;6.43;;;4.70;97.20;;;;;;1713827;28;20224;-72
2022/04/02 06:18:18;;;;;;;7.72;7.13;;;4.70;97.20;;;;;;1708282;29;20293;-72
2022/04/02 06:19:10;;;;;;;8.02;7.43;;;4.70;97.20;;;;;;1708631;29;20241;-72
2022/04/02 06:20:00;;;;;;;7.60;7.00;;;4.70;97.20;;;;;;1708436;29;20581;-72
2022/04/02 06:20:52;;;;;;;7.53;6.93;;;4.70;97.20;;;;;;1708590;29;20198;-73
2022/04/02 06:21:43;;;;;;;6.63;6.03;;;4.70;97.20;;;;;;1708530;29;20203;-73
2022/04/02 06:22:35;;;;;;;7.53;6.93;;;4.70;97.20;;;;;;1708578;29;20283;-73
2022/04/02 06:23:26;;;;;;;7.20;6.60;;;4.70;97.20;;;;;;1708402;29;20480;-74
2022/04/02 06:24:18;;;;;;;6.17;5.77;;;4.70;97.20;;;;;;1708370;29;20214;-73
2022/04/02 06:25:09;;;;;;;8.57;6.57;;;4.70;97.20;;;;;;1708531;29;20206;-73
2022/04/02 06:26:01;;;;;;;6.93;6.43;;;4.70;97.20;;;;;;1708438;29;20198;-73
2022/04/02 06:26:52;;;;;;;6.20;5.60;;;4.70;97.20;;;;;;1708474;29;20214;-73
2022/04/02 06:27:45;;;;;;;6.20;5.80;;;4.70;97.20;;;;;;1708465;29;20202;-72
2022/04/02 06:28:37;;;;;;;6.85;6.35;;;4.80;97.20;;;;;;1708038;29;20450;-73
2022/04/02 06:29:29;;;;;;;6.10;5.60;;;4.80;97.20;;;;;;1709092;28;20207;-73
2022/04/02 06:30:20;;;;;;;6.38;5.78;;;4.80;97.20;;;;;;1714992;28;20210;-72
2022/04/02 06:31:12;;;;;;;7.32;6.00;;;4.80;97.20;;;;;;1715115;28;20198;-73
2022/04/02 06:32:04;;;;;;;6.25;5.85;;;4.80;97.20;;;;;;1715077;28;20677;-73
2022/04/02 06:32:56;;;;;;;7.20;6.60;;;4.80;97.20;;;;;;1715066;28;20229;-73
2022/04/02 06:33:48;;;;;;;6.68;6.07;;;4.80;97.20;;;;;;1715063;28;20234;-73
2022/04/02 06:34:40;;;;;;;6.50;6.00;;;4.80;97.20;;;;;;1715063;28;20202;-73
2022/04/02 06:35:31;;;;;;;6.65;6.15;;;4.80;97.20;;;;;;1715049;28;20213;-73
2022/04/02 06:36:24;;;;;;;6.30;5.80;;;4.90;97.20;;;;;;1714267;28;20230;-73
2022/04/02 06:37:15;;;;;;;6.65;6.05;;;4.90;97.20;;;;;;1715147;28;20206;-73
2022/04/02 06:38:07;;;;;;;6.67;6.03;;;4.90;97.20;;;;;;1714850;28;20225;-73
2022/04/02 06:38:58;;;;;;;6.55;6.00;;;4.90;97.20;;;;;;1715037;28;20270;-73
2022/04/02 06:39:50;;;;;;;6.53;6.00;;;4.90;97.20;;;;;;1714921;28;20280;-73
2022/04/02 06:40:40;;;;;;;6.05;5.55;;;4.90;97.20;;;;;;1714969;28;20206;-73
2022/04/02 06:41:32;;;;;;;6.90;6.40;;;4.90;97.20;;;;;;1715138;28;20205;-73
2022/04/02 06:42:23;;;;;;;7.10;6.50;;;4.90;97.20;;;;;;1715023;28;20802;-72
2022/04/02 06:43:14;;;;;;;7.10;6.53;;;5.00;97.20;;;;;;1715008;28;20240;-74
2022/04/02 06:44:07;;;;;;;6.50;6.00;;;5.00;97.20;;;;;;1715043;28;20233;-73
2022/04/02 06:44:59;;;;;;;6.53;6.10;;;5.00;97.20;;;;;;1715030;28;20201;-73
2022/04/02 06:45:50;;;;;;;7.13;6.53;;;5.00;97.20;;;;;;1714898;28;20245;-74
2022/04/02 06:46:42;;;;;;;6.80;6.20;;;5.00;97.20;;;;;;1714933;28;20206;-73
2022/04/02 06:47:33;;;;;;;6.82;6.22;;;5.00;97.20;;;;;;1715023;28;20267;-74
2022/04/02 06:48:24;;;;;;;5.93;5.53;;;5.10;97.20;;;;;;1714536;28;20208;-74
2022/04/02 06:49:16;;;;;;;6.80;6.30;;;5.10;97.20;;;;;;1714959;28;20717;-73
2022/04/02 06:50:11;;;;;;;6.72;6.22;;;5.10;97.20;;;;;;1714847;28;20209;-73
2022/04/02 06:51:02;;;;;;;7.22;6.63;;;5.10;97.20;;;;;;1714764;28;20684;-74
2022/04/02 06:51:53;;;;;;;6.70;6.20;;;5.10;97.20;;;;;;1714625;28;20810;-74
2022/04/02 06:52:45;;;;;;;6.47;6.07;;;5.10;97.20;;;;;;1714255;28;20208;-74
2022/04/02 06:53:37;;;;;;;6.80;6.25;;;5.10;97.20;;;;;;1714374;28;20657;-72
2022/04/02 06:54:28;;;;;;;6.30;5.80;;;5.10;97.20;;;;;;1714282;28;20233;-73
2022/04/02 06:55:19;;;;;;;6.63;6.07;;;5.10;97.20;;;;;;1714387;28;20197;-73
2022/04/02 06:56:10;;;;;;;6.88;5.50;;;5.10;97.20;;;;;;1714710;28;20233;-72
2022/04/02 06:57:02;;;;;;;6.23;5.83;;;5.10;97.20;;;;;;1713699;28;20202;-72
2022/04/02 06:57:55;;;;;;;6.05;5.55;;;5.10;97.20;;;;;;1708151;29;20338;-72
2022/04/02 06:58:47;;;;;;;6.05;5.63;;;5.10;97.20;;;;;;1707724;29;20206;-72
2022/04/02 06:59:38;;;;;;;6.57;6.07;;;5.10;97.20;;;;;;1708030;29;20203;-72
2022/04/02 07:00:29;;;;;;;6.20;5.73;;;5.10;97.20;;;;;;1708110;29;20202;-73
2022/04/02 07:01:20;;;;;;;6.60;6.10;;;5.10;97.20;;;;;;1708045;29;20238;-72
2022/04/02 07:02:12;;;;;;;6.70;6.20;;;5.10;97.20;;;;;;1708204;29;20206;-72
2022/04/02 07:03:02;;;;;;;6.57;6.05;;;5.10;97.20;;;;;;1708035;29;20622;-73
2022/04/02 07:03:54;;;;;;;7.83;5.80;;;5.10;97.20;;;;;;1708116;29;20609;-72
2022/04/02 07:04:47;;;;;;;6.38;5.88;;;5.10;97.20;;;;;;1708792;28;20206;-73
2022/04/02 07:05:38;;;;;;;6.40;5.80;;;5.10;97.20;;;;;;1714766;28;20202;-72
2022/04/02 07:06:29;;;;;;;6.10;5.60;;;5.10;97.20;;;;;;1710101;28;20289;-72
2022/04/02 07:07:21;;;;;;;6.43;5.93;;;5.10;97.20;;;;;;1708176;29;20218;-73
2022/04/02 07:08:11;;;;;;;6.65;6.15;;;5.10;97.20;;;;;;1707962;28;20454;-72
2022/04/02 07:09:02;;;;;;;5.97;5.57;;;5.20;97.20;;;;;;1708123;29;20203;-74
2022/04/02 07:09:54;;;;;;;6.10;5.50;;;5.20;97.20;;;;;;1708170;28;20194;-73
2022/04/02 07:10:45;;;;;;;6.60;5.88;;;5.20;97.20;;;;;;1708072;29;20222;-73
2022/04/02 07:11:36;;;;;;;7.50;6.07;;;5.20;97.20;;;;;;1708257;29;20677;-72
2022/04/02 07:12:27;;;;;;;5.90;5.50;;;5.20;97.20;;;;;;1708184;28;20249;-72
2022/04/02 07:13:19;;;;;;;5.93;5.53;;;5.20;97.20;;;;;;1707937;29;20241;-73
2022/04/02 07:14:10;;;;;;;5.25;4.90;;;5.30;97.20;;;;;;1708189;29;20601;-73
2022/04/02 07:15:02;;;;;;;6.40;5.90;;;5.30;97.20;;;;;;1708176;29;20287;-72
2022/04/02 07:15:53;;;;;;;6.50;6.00;;;5.30;97.20;;;;;;1708179;29;20517;-72
2022/04/02 07:16:45;;;;;;;6.50;6.00;;;5.30;97.20;;;;;;1708017;29;20222;-72
2022/04/02 07:17:35;;;;;;;6.22;5.75;;;5.30;97.20;;;;;;1708214;29;20246;-73
2022/04/02 07:18:27;;;;;;;6.30;5.80;;;5.30;97.20;;;;;;1707857;29;20203;-73
2022/04/02 07:19:20;;;;;;;6.55;6.00;;;5.30;97.20;;;;;;1708175;28;20586;-73
2022/04/02 07:20:17;;;;;;;6.38;5.88;;;5.40;97.20;;;;;;1708286;28;20203;-72
2022/04/02 07:21:11;;;;;;;6.22;5.82;;;5.40;97.20;;;;;;1708198;29;20249;-72
2022/04/02 07:22:07;;;;;;;6.40;5.80;;;5.40;97.20;;;;;;1708134;28;20285;-73
2022/04/02 07:22:59;;;;;;;6.97;6.38;;;5.40;97.20;;;;;;1707934;28;20214;-73
2022/04/02 07:23:51;;;;;;;6.10;5.60;;;5.40;97.20;;;;;;1707218;28;20592;-72
2022/04/02 07:24:41;;;;;;;6.15;5.55;;;5.30;97.20;;;;;;1708039;28;20210;-72
2022/04/02 07:25:37;;;;;;;6.47;5.97;;;5.30;97.20;;;;;;1708213;28;20206;-72
2022/04/02 07:26:30;;;;;;;6.43;5.93;;;5.30;97.20;;;;;;1708120;29;20241;-72
2022/04/02 07:27:24;;;;;;;6.25;5.75;;;5.30;97.20;;;;;;1707981;29;20224;-73
2022/04/02 07:28:15;;;;;;;6.25;5.75;;;5.30;97.20;;;;;;1707738;29;20202;-73
2022/04/02 07:29:08;;;;;;;6.13;5.63;;;5.30;97.20;;;;;;1708429;28;20273;-73
2022/04/02 07:29:59;;;;;;;6.35;5.75;;;5.30;97.20;;;;;;1711171;28;20252;-74
2022/04/02 07:30:51;;;;;;;5.40;4.90;;;5.30;97.20;;;;;;1714751;28;20198;-74
2022/04/02 07:31:44;;;;;;;6.28;5.80;;;5.30;97.20;;;;;;1714634;28;20236;-73
2022/04/02 07:32:35;;;;;;;6.13;5.63;;;5.30;97.20;;;;;;1714426;28;20194;-73
2022/04/02 07:33:26;;;;;;;6.47;5.97;;;5.30;97.20;;;;;;1711525;28;20222;-73
2022/04/02 07:34:18;;;;;;;5.80;5.30;;;5.30;97.20;;;;;;1712793;28;20206;-73
2022/04/02 07:35:10;;;;;;;7.90;5.38;;;5.30;97.20;;;;;;1709204;28;20619;-72
2022/04/02 07:36:08;;;;;;;5.95;5.55;;;5.30;97.20;;;;;;1714804;28;20194;-72
2022/04/02 07:37:04;;;;;;;6.82;6.03;;;5.30;97.20;;;;;;1710598;28;20729;-72
2022/04/02 07:38:03;;;;;;;5.85;5.43;;;5.30;97.20;;;;;;1708232;29;20203;-73
2022/04/02 07:39:02;;;;;;;7.78;5.85;;;5.30;97.20;;;;;;1708293;29;20216;-73
2022/04/02 07:40:00;;;;;;;6.90;6.35;;;5.30;97.20;;;;;;1714631;28;20213;-72
2022/04/02 07:41:04;;;;;;;6.00;5.45;;;5.30;97.20;;;;;;1712311;28;20208;-73
2022/04/02 07:42:02;;;;;;;6.45;5.85;;;5.30;97.20;;;;;;1710370;28;20497;-72
2022/04/02 07:43:05;;;;;;;5.90;5.50;;;5.30;97.20;;;;;;1714793;28;20626;-72
2022/04/02 07:44:02;;;;;;;6.68;6.07;;;5.30;97.20;;;;;;1715008;28;20340;-73
2022/04/02 07:45:02;;;;;;;6.10;5.60;;;5.30;97.20;;;;;;1715029;28;20198;-73
2022/04/02 07:46:04;;;;;;;6.20;5.70;;;5.30;97.20;;;;;;1714703;28;20241;-73
2022/04/02 07:46:58;;;;;;;5.75;5.28;;;5.30;97.20;;;;;;1714758;28;20194;-73
2022/04/02 07:47:54;;;;;;;6.80;6.20;;;5.30;97.20;;;;;;1714565;28;20233;-72
2022/04/02 07:48:47;;;;;;;6.63;6.07;;;5.30;97.20;;;;;;1714312;28;20284;-73
2022/04/02 07:49:44;;;;;;;6.45;5.90;;;5.30;97.20;;;;;;1714520;28;20584;-73
2022/04/02 07:50:41;;;;;;;6.25;5.82;;;5.30;97.20;;;;;;1714694;28;20233;-73
2022/04/02 07:51:37;;;;;;;6.40;5.75;;;5.30;97.20;;;;;;1707990;28;20665;-74
2022/04/02 07:52:29;;;;;;;6.45;6.03;;;5.40;97.20;;;;;;1707993;29;20202;-72
2022/04/02 07:53:22;;;;;;;6.47;5.95;;;5.40;97.20;;;;;;1712494;28;20613;-73
2022/04/02 07:54:17;;;;;;;6.88;6.28;;;5.30;97.20;;;;;;1713562;28;20216;-73
2022/04/02 07:55:08;;;;;;;7.28;5.95;;;5.40;97.20;;;;;;1714565;28;20252;-73
2022/04/02 07:56:04;;;;;;;6.82;6.20;;;5.40;97.20;;;;;;1710591;28;20201;-73
2022/04/02 07:57:02;;;;;;;7.22;6.55;;;5.40;97.20;;;;;;1709691;28;20206;-73
2022/04/02 07:57:54;;;;;;;6.78;6.18;;;5.40;97.20;;;;;;1709540;28;20230;-72
2022/04/02 07:58:46;;;;;;;6.97;6.40;;;5.40;97.20;;;;;;1708770;28;20207;-73
2022/04/02 07:59:42;;;;;;;6.70;6.15;;;5.40;97.20;;;;;;1708618;28;20381;-73
2022/04/02 08:00:34;;;;;;;6.97;6.38;;;5.40;97.20;;;;;;1709800;28;20209;-73
2022/04/02 08:01:26;;;;;;;6.80;6.20;;;5.40;97.20;;;;;;1711789;28;20241;-73
2022/04/02 08:03:30;;;;;;;6.97;6.38;;;5.40;97.20;;;;;;1709645;28;20499;-73
2022/04/02 08:04:22;;;;;;;7.38;6.60;;;5.40;97.20;;;;;;1709176;28;20199;-73
2022/04/02 08:05:15;;;;;;;6.60;6.05;;;5.40;97.20;;;;;;1709639;28;20202;-73
2022/04/02 08:06:06;;;;;;;6.00;5.50;;;5.40;97.20;;;;;;1709705;28;20946;-73
2022/04/02 08:06:59;;;;;;;6.05;5.55;;;5.40;97.20;;;;;;1709473;28;20562;-73
2022/04/02 08:07:54;;;;;;;5.90;5.50;;;5.50;97.20;;;;;;1709839;28;20214;-73
2022/04/02 08:08:46;;;;;;;6.20;5.70;;;5.40;97.20;;;;;;1710086;28;20194;-73
2022/04/02 08:09:37;;;;;;;6.00;5.53;;;5.40;97.20;;;;;;1708988;28;20236;-73
2022/04/02 08:10:29;;;;;;;5.97;5.50;;;5.40;97.20;;;;;;1710297;28;20202;-73
2022/04/02 08:11:20;;;;;;;5.85;5.45;;;5.40;97.20;;;;;;1708365;28;20620;-73
2022/04/02 08:12:12;;;;;;;5.80;5.40;;;5.40;97.20;;;;;;1709016;28;20569;-73
2022/04/02 08:13:03;;;;;;;5.85;5.43;;;5.40;97.20;;;;;;1709646;28;20457;-73
2022/04/02 08:13:58;;;;;;;6.30;5.55;;;5.30;97.20;;;;;;1709134;28;20203;-73
2022/04/02 08:14:50;;;;;;;6.60;6.10;;;5.40;97.20;;;;;;1709556;28;20198;-73
2022/04/02 08:15:42;;;;;;;7.18;5.43;;;5.40;97.20;;;;;;1709579;28;20285;-73
2022/04/02 08:16:34;;;;;;;6.40;5.85;;;5.30;97.20;;;;;;1709239;28;20202;-73
2022/04/02 08:17:28;;;;;;;5.80;5.40;;;5.30;97.20;;;;;;1709813;28;20688;-73
2022/04/02 08:18:22;;;;;;;5.60;5.20;;;5.30;97.20;;;;;;1708606;28;20229;-73
2022/04/02 08:19:14;;;;;;;5.85;5.35;;;5.40;97.20;;;;;;1710441;28;20676;-73
2022/04/02 08:20:06;;;;;;;5.70;5.30;;;5.30;97.20;;;;;;1710294;28;20210;-73
2022/04/02 08:20:59;;;;;;;5.65;5.25;;;5.40;97.20;;;;;;1708522;28;20187;-73
2022/04/02 08:21:50;;;;;;;6.25;5.75;;;5.40;97.20;;;;;;1709611;28;20350;-73
2022/04/02 08:22:43;;;;;;;6.17;5.70;;;5.30;97.20;;;;;;1708773;28;20205;-73
2022/04/02 08:23:34;;;;;;;6.85;6.25;;;5.40;97.20;;;;;;1709489;28;20226;-73
2022/04/02 08:24:26;;;;;;;6.57;5.97;;;5.30;97.20;;;;;;1709365;28;20289;-73
2022/04/02 08:25:17;;;;;;;6.88;6.28;;;5.40;97.20;;;;;;1709220;28;20273;-73
2022/04/02 08:26:21;;;;;;;6.18;5.78;;;5.40;97.20;;;;;;1708373;28;20257;-73
2022/04/02 08:27:21;;;;;;;6.28;5.72;;;5.40;97.20;;;;;;1709613;28;20225;-73
2022/04/02 08:28:19;;;;;;;6.90;6.20;;;5.40;97.20;;;;;;1709328;28;20201;-73
2022/04/02 08:29:25;;;;;;;6.47;5.88;;;5.40;97.20;;;;;;1709360;28;20635;-73
2022/04/02 08:30:23;;;;;;;6.13;5.63;;;5.40;97.20;;;;;;1710105;28;20210;-73
2022/04/02 08:31:24;;;;;;;6.65;6.05;;;5.40;97.20;;;;;;1708669;28;20211;-73
2022/04/02 08:32:27;;;;;;;6.47;5.97;;;5.40;97.20;;;;;;1709817;28;20210;-73
2022/04/02 08:33:37;;;;;;;6.07;5.63;;;5.40;97.20;;;;;;1710068;28;20226;-73
2022/04/02 08:34:44;;;;;;;5.60;5.20;;;5.30;97.20;;;;;;1709188;28;20206;-73
2022/04/02 08:35:42;;;;;;;5.45;5.05;;;5.30;97.20;;;;;;1709988;28;20198;-73
2022/04/02 08:36:40;;;;;;;6.53;5.80;;;5.30;97.20;;;;;;1709242;28;20217;-73
2022/04/02 08:37:50;;;;;;;5.57;5.07;;;5.30;97.20;;;;;;1708121;28;20233;-73
2022/04/02 08:38:49;;;;;;;6.20;5.70;;;5.30;97.20;;;;;;1708509;28;20247;-72
2022/04/02 08:39:52;;;;;;;6.40;5.78;;;5.30;97.20;;;;;;1709895;28;20662;-72
2022/04/02 08:40:53;;;;;;;7.57;6.10;;;5.40;97.20;;;;;;1710744;28;20198;-72
2022/04/02 08:42:26;;;;;;;6.50;6.00;;;5.40;97.20;;;;;;1708154;28;20261;-72
2022/04/02 08:43:43;;;;;;;6.10;5.70;;;5.40;97.20;;;;;;1709073;28;20314;-73
2022/04/02 08:45:07;;;;;;;5.95;5.45;;;5.30;97.20;;;;;;1709506;28;20208;-72
2022/04/02 08:46:12;;;;;;;6.47;6.00;;;5.30;97.20;;;;;;1708578;28;20210;-72
2022/04/02 08:47:25;;;;;;;6.53;6.13;;;5.30;97.20;;;;;;1709234;28;20202;-72
2022/04/02 08:48:25;;;;;;;6.35;5.85;;;5.30;97.20;;;;;;1708728;28;20230;-72
2022/04/02 08:49:22;;;;;;;6.30;5.80;;;5.30;97.20;;;;;;1707930;28;20733;-72
2022/04/02 08:50:15;;;;;;;7.43;6.93;;;5.40;97.20;;;;;;1708595;28;20193;-73
2022/04/02 08:51:14;;;;;;;6.20;5.60;;;5.40;97.20;;;;;;1708990;28;20210;-72
2022/04/02 08:52:21;;;;;;;6.00;5.60;;;5.50;97.20;;;;;;1708529;28;20256;-72
2022/04/02 08:53:18;;;;;;;5.68;5.18;;;5.60;97.20;;;;;;1709167;28;20266;-72
2022/04/02 08:54:24;;;;;;;6.40;5.85;;;5.60;97.20;;;;;;1709742;28;20198;-72
2022/04/02 08:55:16;;;;;;;7.00;6.00;;;5.70;97.20;;;;;;1709518;28;20666;-72
2022/04/02 08:56:11;;;;;;;6.10;5.50;;;5.80;97.20;;;;;;1708654;28;20206;-72
2022/04/02 08:57:16;;;;;;;6.25;5.75;;;5.80;97.20;;;;;;1709047;28;20207;-72
2022/04/02 08:58:12;;;;;;;8.43;6.03;;;5.90;97.20;;;;;;1709147;28;20194;-72
2022/04/02 08:59:05;;;;;;;6.65;6.15;;;6.00;97.20;;;;;;1709686;28;20222;-72
2022/04/02 09:00:07;;;;;;;6.20;5.70;;;6.00;97.20;;;;;;1708368;28;20194;-73
2022/04/02 09:01:07;;;;;;;6.60;6.10;;;6.00;97.20;;;;;;1707988;28;20191;-72
2022/04/02 09:02:10;;;;;;;6.28;5.68;;;6.10;97.20;;;;;;1709190;28;20194;-72
2022/04/02 09:03:55;;;;;;;6.40;5.70;;;6.10;97.20;;;;;;1709743;28;20197;-72
2022/04/02 09:05:09;;;;;;;6.60;6.05;;;6.10;97.20;;;;;;1701119;29;20286;-72
2022/04/02 09:06:25;;;;;;;7.10;6.03;;;6.10;97.20;;;;;;1700905;28;20201;-73
2022/04/02 09:07:58;;;;;;;6.53;5.90;;;6.20;97.20;;;;;;1709530;28;20205;-72
2022/04/02 09:09:03;;;;;;;6.88;6.38;;;6.20;97.20;;;;;;1709344;28;20256;-72
2022/04/02 09:10:36;;;;;;;5.78;5.38;;;6.20;97.20;;;;;;1709054;28;20264;-72
2022/04/02 09:11:41;;;;;;;6.55;5.95;;;6.20;97.20;;;;;;1687348;29;20223;-72
2022/04/02 09:12:37;;;;;;;6.15;5.65;;;6.20;97.20;;;;;;1709662;28;20634;-72
2022/04/02 09:14:14;;;;;;;9.13;6.15;;;6.20;97.20;;;;;;1708479;28;20234;-73
2022/04/02 09:15:13;;;;;;;6.60;6.10;;;6.20;97.20;;;;;;1709824;28;20206;-72
2022/04/02 09:16:05;;;;;;;8.30;6.28;;;6.20;97.20;;;;;;1709190;28;20206;-72
2022/04/02 09:17:10;;;;;;;6.93;6.43;;;6.20;97.20;;;;;;1707550;28;20599;-73
2022/04/02 09:18:09;;;;;;;7.18;6.57;;;6.20;97.20;;;;;;1708143;28;20194;-73
2022/04/02 09:19:15;;;;;;;7.05;6.55;;;6.20;97.20;;;;;;1708031;28;20273;-73
2022/04/02 09:20:20;;;;;;;7.85;7.15;;;6.30;97.20;;;;;;1708008;28;20218;-72
2022/04/02 09:21:39;;;;;;;7.70;6.80;;;6.30;97.20;;;;;;1708460;28;20194;-72
2022/04/02 09:22:36;;;;;;;6.68;6.18;;;6.40;97.20;;;;;;1709594;28;20304;-73
2022/04/02 09:23:44;;;;;;;6.60;6.00;;;6.40;97.20;;;;;;1707485;28;20461;-73
2022/04/02 09:25:20;;;;;;;6.80;6.30;;;6.30;97.20;;;;;;1708768;28;20563;-73
2022/04/02 09:26:43;;;;;;;7.25;6.63;;;6.30;97.20;;;;;;1708486;28;20206;-73
2022/04/02 09:28:09;;;;;;;6.55;5.95;;;6.20;97.20;;;;;;1690614;29;20581;-72
2022/04/02 09:29:14;;;;;;;7.20;6.70;;;6.10;97.20;;;;;;1709940;28;20217;-73
2022/04/02 09:30:17;;;;;;;8.10;7.28;;;6.10;97.20;;;;;;1708564;28;20214;-73
2022/04/02 09:31:54;;;;;;;7.50;6.90;;;6.10;97.20;;;;;;1708539;28;20216;-72
2022/04/02 09:33:09;;;;;;;7.88;7.28;;;6.10;97.20;;;;;;1709764;28;20244;-73
2022/04/02 09:34:44;;;;;;;7.72;7.07;;;6.10;97.20;;;;;;1708261;28;20194;-73
2022/04/02 09:36:02;;;;;;;8.35;7.65;;;6.00;97.20;;;;;;1708516;28;20214;-73
2022/04/02 09:37:02;;;;;;;7.13;6.55;;;6.00;97.20;;;;;;1709239;28;20190;-73
2022/04/02 09:38:35;;;;;;;8.55;7.70;;;5.90;97.20;;;;;;1708337;28;20840;-72
2022/04/02 09:39:51;;;;;;;7.38;6.85;;;5.90;97.20;;;;;;1708603;28;20693;-73
2022/04/02 09:40:48;;;;;;;8.27;7.63;;;5.90;97.20;;;;;;1710244;28;20570;-73
2022/04/02 09:42:18;;;;;;;8.07;7.43;;;5.80;97.20;;;;;;1708382;28;20202;-73
2022/04/02 09:43:18;;;;;;;7.85;7.15;;;5.80;97.20;;;;;;1687129;29;20209;-73
2022/04/02 09:44:29;;;;;;;7.97;7.25;;;5.80;97.20;;;;;;1702888;28;20244;-72
2022/04/02 09:45:28;;;;;;;8.05;7.35;;;5.70;97.20;;;;;;1707992;28;20245;-73
2022/04/02 09:46:34;;;;;;;7.63;6.93;;;5.60;97.20;;;;;;1708690;28;20286;-73
2022/04/02 09:47:43;;;;;;;7.90;7.10;;;5.60;97.20;;;;;;1707874;28;20210;-73
2022/04/02 09:48:46;;;;;;;9.20;8.27;;;5.60;97.20;;;;;;1707805;28;20206;-73
2022/04/02 09:49:46;;;;;;;9.15;8.45;;;5.50;97.20;;;;;;1708171;28;20203;-72
2022/04/02 09:50:37;;;;;;;8.13;7.43;;;5.50;97.20;;;;;;1708829;28;20206;-73
2022/04/02 09:51:32;;;;;;;8.90;8.20;;;5.50;97.20;;;;;;1708781;28;20285;-72
2022/04/02 09:52:25;;;;;;;8.70;7.80;;;5.50;97.20;;;;;;1707694;28;20449;-73
2022/04/02 09:53:22;;;;;;;9.20;8.45;;;5.50;97.20;;;;;;1708667;28;20295;-72
2022/04/02 09:54:26;;;;;;;8.75;8.05;;;5.40;97.20;;;;;;1708535;28;20190;-73
2022/04/02 09:55:22;;;;;;;10.70;8.52;;;5.40;97.20;;;;;;1708780;28;20202;-72
2022/04/02 09:56:24;;;;;;;8.88;8.18;;;5.40;97.20;;;;;;1708418;28;20206;-73
2022/04/02 09:57:27;;;;;;;8.10;7.40;;;5.40;97.20;;;;;;1707454;28;20293;-73
2022/04/02 09:58:42;;;;;;;8.27;7.68;;;5.40;97.20;;;;;;1708829;28;20202;-72